Brigantine City, New Jersey
Current Conditions -  °F | °C
As of 6:54 PM on Friday 24 Oct 2014 (Local Time) from KACY Reporting Station
Clear Clear  
Wind Chill: 61°   Ceiling: Unl
Heat Index: 61°   Visibility: 10mi
Dew Point: 47°   Wind: 7mph
Humidity: 60%   Direction: 240°WSW
Pressure: 29.83"   Gusts: NA
Location:  39.4065°N, 74.3772°W
Report Text: KACY 242254Z 24006KT 10SM CLR 16/08 A2983 RMK AO2 SLP101 T01610083
Loading
Personal Weather Stations






























Interactive Weather Map
Tropical Storm Tracking
New forecast layout! Learn more

10-Day Weather Forecast

Advertisements
Track Severe Weather on mobile